createdAt,value
2023-04-18T00:02:38.790Z,1.92
2023-04-18T00:05:43.909Z,2.10
2023-04-18T00:08:46.594Z,2.08
2023-04-18T00:11:49.184Z,2.15
2023-04-18T00:14:52.203Z,2.15
2023-04-18T00:17:57.067Z,2.08
2023-04-18T00:20:59.409Z,2.28
2023-04-18T00:24:02.372Z,2.10
2023-04-18T00:27:04.686Z,2.10
2023-04-18T00:30:09.061Z,2.42
2023-04-18T00:33:12.873Z,2.33
2023-04-18T00:36:15.519Z,2.53
2023-04-18T00:39:17.836Z,2.60
2023-04-18T00:42:21.952Z,2.17
2023-04-18T00:45:24.357Z,2.17
2023-04-18T00:48:27.394Z,2.55
2023-04-18T00:51:29.870Z,2.40
2023-04-18T00:54:32.861Z,2.42
2023-04-18T00:57:36.089Z,2.40
2023-04-18T01:00:38.748Z,2.72
2023-04-18T01:03:41.284Z,2.95
2023-04-18T01:06:45.602Z,2.70
2023-04-18T01:13:20.410Z,2.50
2023-04-18T01:16:23.923Z,2.50
2023-04-18T01:22:31.978Z,2.62
2023-04-18T01:25:34.966Z,2.58
2023-04-18T01:28:37.524Z,2.37
2023-04-18T01:31:41.336Z,2.60
2023-04-18T01:34:43.810Z,3.40
2023-04-18T01:37:46.706Z,2.60
2023-04-18T01:40:49.532Z,2.62
2023-04-18T01:43:52.130Z,2.80
2023-04-18T01:46:55.104Z,2.75
2023-04-18T01:49:57.724Z,3.05
2023-04-18T01:53:00.120Z,2.60
2023-04-18T01:56:02.724Z,2.65
2023-04-18T01:59:05.065Z,2.50
2023-04-18T02:02:08.150Z,2.97
2023-04-18T02:05:11.076Z,2.80
2023-04-18T02:08:14.861Z,2.85
2023-04-18T02:11:20.355Z,2.95
2023-04-18T02:14:22.707Z,2.85
2023-04-18T02:20:33.713Z,2.62
2023-04-18T02:23:37.140Z,2.78
2023-04-18T02:26:39.471Z,2.55
2023-04-18T02:29:42.083Z,2.80
2023-04-18T02:32:44.447Z,2.60
2023-04-18T02:35:47.191Z,3.12
2023-04-18T02:38:51.472Z,3.05
2023-04-18T02:41:55.789Z,2.87
2023-04-18T02:44:58.494Z,3.10
2023-04-18T02:48:01.832Z,3.25
2023-04-18T02:51:05.999Z,3.30
2023-04-18T02:54:09.302Z,3.22
2023-04-18T02:57:12.889Z,3.58
2023-04-18T03:00:16.333Z,3.12
2023-04-18T03:03:22.724Z,3.28
2023-04-18T03:06:25.729Z,3.35
2023-04-18T03:09:28.448Z,3.70
2023-04-18T03:12:31.668Z,3.37
2023-04-18T03:15:35.006Z,3.97
2023-04-18T03:18:38.137Z,3.47
2023-04-18T03:21:40.683Z,3.75
2023-04-18T03:24:43.896Z,3.60
2023-04-18T03:27:46.869Z,4.25
2023-04-18T03:30:50.818Z,4.60
2023-04-18T03:33:53.397Z,4.32
2023-04-18T03:36:58.150Z,3.95
2023-04-18T03:40:01.119Z,4.32
2023-04-18T03:43:07.060Z,4.47
2023-04-18T03:46:09.402Z,4.28
2023-04-18T03:49:15.442Z,4.47
2023-04-18T03:52:20.148Z,4.40
2023-04-18T03:55:22.886Z,4.28
2023-04-18T03:58:25.737Z,4.10
2023-04-18T04:01:29.376Z,4.00
2023-04-18T04:04:32.150Z,4.12
2023-04-18T04:07:34.938Z,4.45
2023-04-18T04:10:37.569Z,4.60
2023-04-18T04:13:40.081Z,4.50
2023-04-18T04:16:43.043Z,4.80
2023-04-18T04:19:46.674Z,4.95
2023-04-18T04:22:52.593Z,4.43
2023-04-18T04:25:58.563Z,4.72
2023-04-18T04:29:05.181Z,4.65
2023-04-18T04:32:08.283Z,4.65
2023-04-18T04:35:11.705Z,4.53
2023-04-18T04:38:15.381Z,4.35
2023-04-18T04:41:18.802Z,4.70
2023-04-18T04:44:22.373Z,5.25
2023-04-18T04:47:26.073Z,4.22
2023-04-18T04:50:29.270Z,4.85
2023-04-18T04:53:31.883Z,4.87
2023-04-18T04:56:34.703Z,5.03
2023-04-18T04:59:37.931Z,5.05
2023-04-18T05:02:41.219Z,5.13
2023-04-18T05:05:43.989Z,4.50
2023-04-18T05:08:50.548Z,5.10
2023-04-18T05:11:53.165Z,4.78
2023-04-18T05:14:55.619Z,4.97
2023-04-18T05:17:58.819Z,5.43
2023-04-18T05:21:01.462Z,5.50
2023-04-18T05:24:04.079Z,4.87
2023-04-18T05:27:06.711Z,5.15
2023-04-18T05:30:09.781Z,5.70
2023-04-18T05:33:12.133Z,4.57
2023-04-18T05:36:14.764Z,4.95
2023-04-18T05:39:17.278Z,4.62
2023-04-18T05:42:19.906Z,5.12
2023-04-18T05:45:22.247Z,5.20
2023-04-18T05:48:25.381Z,5.32
2023-04-18T05:51:28.619Z,4.93
2023-04-18T05:54:31.412Z,4.97
2023-04-18T05:57:33.733Z,5.15
2023-04-18T06:00:36.491Z,4.78
2023-04-18T06:03:39.328Z,4.55
2023-04-18T06:06:42.147Z,4.95
2023-04-18T06:09:44.831Z,4.75
2023-04-18T06:12:47.152Z,4.72
2023-04-18T06:15:50.082Z,4.07
2023-04-18T06:18:52.622Z,4.82
2023-04-18T06:21:55.232Z,4.57
2023-04-18T06:24:57.760Z,4.90
2023-04-18T06:28:00.527Z,5.10
2023-04-18T06:31:02.936Z,3.90
2023-04-18T06:34:06.361Z,4.15
2023-04-18T06:37:08.740Z,4.37
2023-04-18T06:40:12.203Z,6.50
2023-04-18T06:43:14.735Z,5.50
2023-04-18T06:46:17.424Z,4.93
2023-04-18T06:49:22.002Z,3.83
2023-04-18T06:52:28.883Z,3.97
2023-04-18T06:55:31.325Z,4.00
2023-04-18T06:58:33.996Z,3.37
2023-04-18T07:01:43.148Z,3.58
2023-04-18T07:04:46.064Z,3.75
2023-04-18T07:07:48.608Z,4.18
2023-04-18T07:10:54.244Z,4.17
2023-04-18T07:13:56.577Z,3.90
2023-04-18T07:17:00.916Z,4.00
2023-04-18T07:20:03.451Z,3.60
2023-04-18T07:23:06.534Z,3.80
2023-04-18T07:26:10.137Z,7.80
2023-04-18T07:32:14.876Z,3.53
2023-04-18T07:35:17.548Z,3.28
2023-04-18T07:38:20.768Z,3.00
2023-04-18T07:41:23.558Z,2.92
2023-04-18T07:44:25.994Z,3.08
2023-04-18T07:47:31.566Z,3.10
2023-04-18T07:50:34.643Z,2.78
2023-04-18T07:53:37.406Z,2.70
2023-04-18T07:56:42.401Z,2.72
2023-04-18T07:59:45.067Z,3.03
2023-04-18T08:02:47.631Z,2.45
2023-04-18T08:05:52.614Z,2.80
2023-04-18T08:08:55.004Z,2.90
2023-04-18T08:11:59.344Z,2.60
2023-04-18T08:15:01.720Z,2.78
2023-04-18T08:18:10.184Z,7.07
2023-04-18T08:21:14.557Z,8.35
2023-04-18T08:24:17.186Z,3.28
2023-04-18T08:27:20.687Z,2.12
2023-04-18T08:33:37.186Z,2.10
2023-04-18T08:36:42.053Z,2.35
2023-04-18T08:39:45.034Z,1.83
2023-04-18T08:42:51.030Z,2.30
2023-04-18T08:45:59.500Z,2.00
2023-04-18T08:49:04.776Z,2.20
2023-04-18T08:52:13.503Z,1.90
2023-04-18T08:55:16.520Z,2.03
2023-04-18T08:58:22.758Z,1.90
2023-04-18T09:01:58.499Z,7.97
2023-04-18T09:05:11.064Z,4.35
2023-04-18T09:08:25.898Z,1.55
2023-04-18T09:11:30.292Z,1.40
2023-04-18T09:14:33.736Z,1.50
2023-04-18T09:17:46.111Z,1.20
2023-04-18T09:20:50.052Z,1.60
2023-04-18T09:27:14.343Z,1.47
2023-04-18T09:30:40.041Z,1.25
2023-04-18T09:33:54.554Z,1.70
2023-04-18T09:37:11.279Z,1.30
2023-04-18T09:40:19.074Z,1.65
2023-04-18T09:43:21.916Z,1.60
2023-04-18T09:46:25.342Z,1.67
2023-04-18T09:49:27.784Z,1.83
2023-04-18T09:52:41.628Z,2.05
2023-04-18T09:55:44.740Z,2.08
2023-04-18T09:58:57.076Z,2.08
2023-04-18T10:01:59.891Z,1.90
2023-04-18T10:05:05.840Z,2.20
2023-04-18T10:08:09.460Z,2.05
2023-04-18T10:11:12.328Z,2.00
2023-04-18T10:14:17.830Z,1.80
2023-04-18T10:17:21.592Z,1.98
2023-04-18T10:20:32.694Z,2.33
2023-04-18T10:23:39.283Z,1.90
2023-04-18T10:26:47.137Z,1.98
2023-04-18T10:29:54.120Z,1.77
2023-04-18T10:32:56.815Z,1.55
2023-04-18T10:36:08.347Z,1.58
2023-04-18T10:39:22.800Z,1.37
2023-04-18T10:42:47.399Z,1.40
2023-04-18T10:46:23.947Z,1.60
2023-04-18T10:49:33.750Z,1.48
2023-04-18T10:52:36.099Z,10.63
2023-04-18T10:55:44.722Z,2.10
2023-04-18T10:58:52.269Z,1.40
2023-04-18T11:02:16.443Z,1.60
2023-04-18T11:05:21.064Z,1.40
2023-04-18T11:08:24.476Z,1.40
2023-04-18T11:11:26.909Z,1.80
2023-04-18T11:14:48.780Z,1.48
2023-04-18T11:18:04.843Z,1.67
2023-04-18T11:21:07.969Z,1.50
2023-04-18T11:24:10.835Z,1.50
2023-04-18T11:27:13.999Z,1.30
2023-04-18T11:30:16.480Z,14.05
2023-04-18T11:33:29.419Z,4.80
2023-04-18T11:36:35.180Z,1.55
2023-04-18T11:39:44.599Z,1.80
2023-04-18T11:42:46.971Z,1.20
2023-04-18T11:45:57.515Z,1.80
2023-04-18T11:48:59.850Z,1.30
2023-04-18T11:52:13.615Z,1.40
2023-04-18T11:55:21.722Z,1.45
2023-04-18T11:58:31.952Z,1.37
2023-04-18T12:01:34.496Z,1.52
2023-04-18T12:04:52.158Z,1.47
2023-04-18T12:07:56.096Z,1.42
2023-04-18T12:11:02.386Z,1.73
2023-04-18T12:14:04.824Z,1.40
2023-04-18T12:17:07.505Z,1.33
2023-04-18T12:20:10.773Z,1.58
2023-04-18T12:23:36.076Z,1.52
2023-04-18T12:26:45.979Z,1.75
2023-04-18T12:29:48.609Z,1.60
2023-04-18T12:32:53.610Z,1.42
2023-04-18T12:35:56.676Z,1.62
2023-04-18T12:38:59.003Z,1.40
2023-04-18T12:42:02.302Z,1.40
2023-04-18T12:45:07.781Z,1.52
2023-04-18T12:48:10.674Z,1.55
2023-04-18T12:51:13.002Z,1.55
2023-04-18T12:54:16.142Z,2.42
2023-04-18T12:57:18.645Z,1.67
2023-04-18T13:00:23.478Z,1.48
2023-04-18T13:03:26.434Z,1.52
2023-04-18T13:06:32.205Z,1.40
2023-04-18T13:09:34.605Z,1.30
2023-04-18T13:12:43.792Z,1.45
2023-04-18T13:15:46.128Z,1.50
2023-04-18T13:18:48.702Z,2.05
2023-04-18T13:21:54.377Z,1.23
2023-04-18T13:25:03.185Z,1.75
2023-04-18T13:28:05.645Z,1.42
2023-04-18T13:31:08.236Z,1.50
2023-04-18T13:34:10.654Z,1.60
2023-04-18T13:37:14.289Z,1.50
2023-04-18T13:40:16.665Z,1.70
2023-04-18T13:43:19.629Z,1.90
2023-04-18T13:46:24.329Z,1.70
2023-04-18T13:49:27.163Z,1.40
2023-04-18T13:52:29.578Z,1.23
2023-04-18T13:55:32.219Z,1.30
2023-04-18T13:58:34.484Z,1.50
2023-04-18T14:01:37.212Z,1.40
2023-04-18T14:04:39.957Z,1.33
2023-04-18T14:07:42.661Z,1.45
2023-04-18T14:10:46.747Z,1.30
2023-04-18T14:13:49.135Z,1.50
2023-04-18T14:16:55.911Z,1.53
2023-04-18T14:19:58.336Z,1.80
2023-04-18T14:23:01.928Z,1.53
2023-04-18T14:26:05.537Z,1.30
2023-04-18T14:29:08.220Z,1.52
2023-04-18T14:32:10.614Z,1.50
2023-04-18T14:35:13.249Z,1.23
2023-04-18T14:38:16.151Z,1.60
2023-04-18T14:41:18.813Z,1.65
2023-04-18T14:44:22.556Z,1.58
2023-04-18T14:47:30.919Z,1.77
2023-04-18T14:50:33.357Z,2.42
2023-04-18T14:53:36.048Z,1.60
2023-04-18T14:56:38.418Z,1.42
2023-04-18T14:59:41.039Z,1.27
2023-04-18T15:02:43.647Z,1.50
2023-04-18T15:05:48.486Z,1.67
2023-04-18T15:08:54.386Z,1.50
2023-04-18T15:11:58.195Z,1.62
2023-04-18T15:15:00.638Z,1.60
2023-04-18T15:18:03.949Z,1.80
2023-04-18T15:21:06.359Z,1.50
2023-04-18T15:24:09.056Z,2.92
2023-04-18T15:27:11.869Z,3.72
2023-04-18T15:30:14.645Z,1.85
2023-04-18T15:33:19.089Z,1.40
2023-04-18T15:36:22.112Z,1.48
2023-04-18T15:39:24.435Z,1.67
2023-04-18T15:42:28.089Z,1.50
2023-04-18T15:45:30.938Z,1.73
2023-04-18T15:48:34.821Z,2.13
2023-04-18T15:51:37.251Z,2.08
2023-04-18T15:54:42.997Z,1.92
2023-04-18T15:57:45.393Z,1.98
2023-04-18T16:00:50.061Z,1.60
2023-04-18T16:03:52.833Z,1.35
2023-04-18T16:06:55.873Z,1.90
2023-04-18T16:09:58.497Z,1.92
2023-04-18T16:13:00.968Z,1.70
2023-04-18T16:16:07.021Z,1.80
2023-04-18T16:19:09.769Z,1.87
2023-04-18T16:22:15.405Z,1.90
2023-04-18T16:25:18.991Z,1.95
2023-04-18T16:31:24.423Z,2.60
2023-04-18T16:34:27.075Z,1.98
2023-04-18T16:37:29.446Z,1.52
2023-04-18T16:40:32.613Z,1.62
2023-04-18T16:43:38.117Z,2.13
2023-04-18T16:46:40.973Z,1.85
2023-04-18T16:49:44.830Z,2.00
2023-04-18T16:52:47.520Z,1.75
2023-04-18T16:55:56.178Z,2.12
2023-04-18T16:59:02.803Z,2.00
2023-04-18T17:02:05.752Z,1.75
2023-04-18T17:05:10.934Z,1.77
2023-04-18T17:08:13.360Z,2.22
2023-04-18T17:11:16.076Z,1.85
2023-04-18T17:14:18.543Z,2.45
2023-04-18T17:17:23.161Z,2.72
2023-04-18T17:20:26.041Z,2.67
2023-04-18T17:23:30.329Z,2.50
2023-04-18T17:26:35.295Z,2.70
2023-04-18T17:29:38.355Z,2.10
2023-04-18T17:32:45.741Z,2.08
2023-04-18T17:35:48.899Z,2.95
2023-04-18T17:38:51.350Z,2.85
2023-04-18T17:41:54.873Z,2.75
2023-04-18T17:44:57.355Z,2.87
2023-04-18T17:48:02.254Z,3.42
2023-04-18T17:51:05.084Z,2.45
2023-04-18T17:54:08.187Z,2.63
2023-04-18T17:57:11.237Z,2.42
2023-04-18T18:00:14.689Z,2.85
2023-04-18T18:03:17.640Z,2.40
2023-04-18T18:06:42.546Z,2.65
2023-04-18T18:09:45.848Z,2.60
2023-04-18T18:12:48.466Z,2.80
2023-04-18T18:15:52.767Z,2.45
2023-04-18T18:19:02.243Z,2.95
2023-04-18T18:22:04.601Z,3.03
2023-04-18T18:25:07.629Z,5.37
2023-04-18T18:28:10.134Z,3.65
2023-04-18T18:31:12.906Z,3.12
2023-04-18T18:34:15.678Z,3.33
2023-04-18T18:37:18.448Z,3.70
2023-04-18T18:40:21.309Z,2.90
2023-04-18T18:43:26.289Z,2.75
2023-04-18T18:46:28.789Z,2.95
2023-04-18T18:49:31.654Z,2.65
2023-04-18T18:52:35.781Z,3.22
2023-04-18T18:55:38.427Z,2.97
2023-04-18T18:58:41.142Z,2.75
2023-04-18T19:01:44.011Z,2.70
2023-04-18T19:04:47.076Z,5.10
2023-04-18T19:07:51.453Z,4.15
2023-04-18T19:10:56.002Z,3.22
2023-04-18T19:13:58.584Z,3.37
2023-04-18T19:17:01.046Z,3.30
2023-04-18T19:20:04.104Z,3.72
2023-04-18T19:23:06.551Z,3.87
2023-04-18T19:26:10.039Z,3.58
2023-04-18T19:29:14.313Z,3.45
2023-04-18T19:32:17.275Z,3.40
2023-04-18T19:35:19.608Z,3.70
2023-04-18T19:38:22.264Z,3.90
2023-04-18T19:41:26.018Z,3.58
2023-04-18T19:44:28.692Z,4.10
2023-04-18T19:47:33.812Z,3.83
2023-04-18T19:50:39.460Z,3.70
2023-04-18T19:53:41.840Z,4.20
2023-04-18T19:56:44.507Z,3.90
2023-04-18T19:59:46.919Z,3.60
2023-04-18T20:02:49.683Z,3.67
2023-04-18T20:05:52.508Z,3.83
2023-04-18T20:08:57.912Z,3.17
2023-04-18T20:12:02.068Z,3.60
2023-04-18T20:18:08.269Z,3.15
2023-04-18T20:21:15.153Z,2.72
2023-04-18T20:24:17.904Z,2.58
2023-04-18T20:27:23.615Z,3.12
2023-04-18T20:30:27.691Z,3.05
2023-04-18T20:33:30.099Z,3.72
2023-04-18T20:36:34.504Z,3.50
2023-04-18T20:39:38.416Z,2.30
2023-04-18T20:42:41.117Z,2.15
2023-04-18T20:45:43.448Z,2.40
2023-04-18T20:48:46.171Z,2.60
2023-04-18T20:51:53.417Z,2.37
2023-04-18T20:55:01.408Z,2.10
2023-04-18T20:58:03.804Z,2.30
2023-04-18T21:01:07.120Z,2.20
2023-04-18T21:04:09.649Z,2.20
2023-04-18T21:07:12.459Z,2.80
2023-04-18T21:10:17.228Z,2.28
2023-04-18T21:13:19.830Z,2.10
2023-04-18T21:16:24.028Z,2.35
2023-04-18T21:19:26.900Z,2.33
2023-04-18T21:22:29.263Z,2.40
2023-04-18T21:25:31.893Z,2.53
2023-04-18T21:28:34.253Z,2.60
2023-04-18T21:31:37.141Z,2.80
2023-04-18T21:34:39.489Z,2.80
2023-04-18T21:37:42.547Z,2.70
2023-04-18T21:40:44.832Z,3.00
2023-04-18T21:43:47.640Z,3.12
2023-04-18T21:46:50.049Z,2.85
2023-04-18T21:49:52.844Z,2.78
2023-04-18T21:52:55.280Z,2.78
2023-04-18T21:55:57.855Z,2.75
2023-04-18T21:59:00.549Z,3.05
2023-04-18T22:02:03.233Z,2.70
2023-04-18T22:05:08.837Z,2.80
2023-04-18T22:08:11.154Z,2.67
2023-04-18T22:11:13.833Z,3.35
2023-04-18T22:14:16.592Z,2.70
2023-04-18T22:17:19.534Z,2.78
2023-04-18T22:20:22.402Z,2.90
2023-04-18T22:23:26.296Z,2.97
2023-04-18T22:26:28.991Z,2.67
2023-04-18T22:29:31.670Z,2.87
2023-04-18T22:32:34.045Z,3.20
2023-04-18T22:35:36.718Z,2.80
2023-04-18T22:38:39.386Z,2.67
2023-04-18T22:41:42.082Z,3.20
2023-04-18T22:44:44.408Z,2.70
2023-04-18T22:47:47.467Z,2.80
2023-04-18T22:50:50.122Z,2.80
2023-04-18T22:53:52.715Z,2.87
2023-04-18T22:56:55.132Z,3.10
2023-04-18T22:59:57.780Z,2.90
2023-04-18T23:03:00.510Z,2.65
2023-04-18T23:06:03.207Z,3.00
2023-04-18T23:09:07.763Z,3.00
2023-04-18T23:12:10.437Z,2.90
2023-04-18T23:15:13.144Z,2.80
2023-04-18T23:18:15.805Z,2.87
2023-04-18T23:21:18.150Z,2.42
2023-04-18T23:24:20.708Z,2.87
2023-04-18T23:27:23.064Z,2.87
2023-04-18T23:30:26.772Z,2.75
2023-04-18T23:33:29.070Z,2.35
2023-04-18T23:36:32.418Z,2.30
2023-04-18T23:39:34.711Z,2.60
2023-04-18T23:42:37.402Z,2.72
2023-04-18T23:45:39.813Z,2.33
2023-04-18T23:48:42.506Z,3.25
2023-04-18T23:51:44.896Z,2.60
2023-04-18T23:54:47.471Z,2.50
2023-04-18T23:57:49.845Z,2.58
